Aviation Digital Data Service (ADDS)

Output produced by METARs form (2202 UTC 03 July 2015)
found at http://aviationweather.gov/adds/metars/
 
KORF 031742Z 0318/0418 09008KT P6SM SCT025 BKN070 
     FM032100 14008KT 5SM -SHRA BKN030 
     FM040400 16005KT 4SM -RA BKN030 
     FM041400 28010G15KT P6SM SCT030